sensor_id;sensor_type;location;lat;lon;timestamp;pressure;altitude;pressure_sealevel;temperature;humidity
56731;BME280;42613;47.424;8.560;2023-06-14T00:02:00;96059.16;;;19.62;35.83
56731;BME280;42613;47.424;8.560;2023-06-14T00:04:26;96040.50;;;19.66;35.39
56731;BME280;42613;47.424;8.560;2023-06-14T00:06:51;96046.78;;;19.71;35.05
56731;BME280;42613;47.424;8.560;2023-06-14T00:09:17;96048.13;;;19.74;35.24
56731;BME280;42613;47.424;8.560;2023-06-14T00:11:43;96038.94;;;19.70;35.06
56731;BME280;42613;47.424;8.560;2023-06-14T00:14:09;96049.53;;;19.82;34.88
56731;BME280;42613;47.424;8.560;2023-06-14T00:16:34;96043.53;;;19.75;34.61
56731;BME280;42613;47.424;8.560;2023-06-14T00:19:01;96047.28;;;19.68;35.13
56731;BME280;42613;47.424;8.560;2023-06-14T00:21:29;96042.94;;;19.62;35.09
56731;BME280;42613;47.424;8.560;2023-06-14T00:23:55;96031.25;;;19.46;35.42
56731;BME280;42613;47.424;8.560;2023-06-14T00:26:20;96034.50;;;19.48;35.68
56731;BME280;42613;47.424;8.560;2023-06-14T00:28:45;96036.41;;;19.48;35.50
56731;BME280;42613;47.424;8.560;2023-06-14T00:31:11;96022.34;;;19.46;35.70
56731;BME280;42613;47.424;8.560;2023-06-14T00:33:36;96036.72;;;19.62;35.42
56731;BME280;42613;47.424;8.560;2023-06-14T00:36:01;96039.22;;;19.73;35.14
56731;BME280;42613;47.424;8.560;2023-06-14T00:38:27;96019.75;;;19.71;34.96
56731;BME280;42613;47.424;8.560;2023-06-14T00:40:52;96016.25;;;19.71;34.70
56731;BME280;42613;47.424;8.560;2023-06-14T00:43:17;96034.63;;;19.74;34.68
56731;BME280;42613;47.424;8.560;2023-06-14T00:45:42;96036.97;;;19.55;35.45
56731;BME280;42613;47.424;8.560;2023-06-14T00:48:08;96025.25;;;19.29;36.37
56731;BME280;42613;47.424;8.560;2023-06-14T00:50:35;96036.59;;;19.31;36.60
56731;BME280;42613;47.424;8.560;2023-06-14T00:53:01;96020.63;;;19.24;36.04
56731;BME280;42613;47.424;8.560;2023-06-14T00:55:27;96027.56;;;19.10;36.28
56731;BME280;42613;47.424;8.560;2023-06-14T00:57:54;96037.09;;;19.28;35.99
56731;BME280;42613;47.424;8.560;2023-06-14T01:00:20;96011.97;;;19.22;35.78
56731;BME280;42613;47.424;8.560;2023-06-14T01:02:45;96038.50;;;19.41;35.72
56731;BME280;42613;47.424;8.560;2023-06-14T01:05:11;96039.22;;;19.21;35.92
56731;BME280;42613;47.424;8.560;2023-06-14T01:08:24;96026.53;;;19.21;36.40
56731;BME280;42613;47.424;8.560;2023-06-14T01:11:02;96036.88;;;19.35;35.64
56731;BME280;42613;47.424;8.560;2023-06-14T01:13:36;96015.31;;;19.45;35.34
56731;BME280;42613;47.424;8.560;2023-06-14T01:16:03;96031.38;;;19.72;34.94
56731;BME280;42613;47.424;8.560;2023-06-14T01:18:30;96025.72;;;19.79;34.92
56731;BME280;42613;47.424;8.560;2023-06-14T01:20:56;96014.31;;;19.66;35.00
56731;BME280;42613;47.424;8.560;2023-06-14T01:23:23;96036.41;;;19.48;34.84
56731;BME280;42613;47.424;8.560;2023-06-14T01:25:50;96020.94;;;19.33;35.13
56731;BME280;42613;47.424;8.560;2023-06-14T01:28:20;96011.84;;;19.49;34.98
56731;BME280;42613;47.424;8.560;2023-06-14T01:30:48;96034.03;;;19.67;34.99
56731;BME280;42613;47.424;8.560;2023-06-14T01:33:19;96032.69;;;19.69;34.77
56731;BME280;42613;47.424;8.560;2023-06-14T01:35:50;96033.25;;;19.66;34.37
56731;BME280;42613;47.424;8.560;2023-06-14T01:38:17;96010.19;;;19.53;34.92
56731;BME280;42613;47.424;8.560;2023-06-14T01:40:45;96003.69;;;19.44;34.59
56731;BME280;42613;47.424;8.560;2023-06-14T01:43:15;96019.94;;;19.49;34.06
56731;BME280;42613;47.424;8.560;2023-06-14T01:45:42;96012.03;;;19.38;34.53
56731;BME280;42613;47.424;8.560;2023-06-14T01:48:08;96010.69;;;19.40;34.81
56731;BME280;42613;47.424;8.560;2023-06-14T01:50:34;96014.19;;;19.36;34.41
56731;BME280;42613;47.424;8.560;2023-06-14T01:52:59;96006.88;;;19.31;34.50
56731;BME280;42613;47.424;8.560;2023-06-14T01:55:25;96009.06;;;19.34;35.41
56731;BME280;42613;47.424;8.560;2023-06-14T01:57:51;96015.78;;;19.31;34.71
56731;BME280;42613;47.424;8.560;2023-06-14T02:00:17;96011.47;;;19.30;35.24
56731;BME280;42613;47.424;8.560;2023-06-14T02:02:43;96018.19;;;19.28;35.05
56731;BME280;42613;47.424;8.560;2023-06-14T02:05:09;96011.47;;;19.30;35.04
56731;BME280;42613;47.424;8.560;2023-06-14T02:07:35;96014.94;;;19.26;35.17
56731;BME280;42613;47.424;8.560;2023-06-14T02:10:02;96007.09;;;19.19;34.68
56731;BME280;42613;47.424;8.560;2023-06-14T02:12:27;96004.69;;;19.18;35.16
56731;BME280;42613;47.424;8.560;2023-06-14T02:14:52;96023.81;;;19.16;35.16
56731;BME280;42613;47.424;8.560;2023-06-14T02:17:19;96019.47;;;19.15;35.18
56731;BME280;42613;47.424;8.560;2023-06-14T02:19:44;96030.44;;;18.93;34.98
56731;BME280;42613;47.424;8.560;2023-06-14T02:22:10;96028.81;;;18.60;36.36
56731;BME280;42613;47.424;8.560;2023-06-14T02:24:35;96009.97;;;18.33;37.11
56731;BME280;42613;47.424;8.560;2023-06-14T02:27:01;96025.88;;;18.29;37.80
56731;BME280;42613;47.424;8.560;2023-06-14T02:29:27;96035.75;;;18.18;38.14
56731;BME280;42613;47.424;8.560;2023-06-14T02:31:52;96030.81;;;18.10;38.33
56731;BME280;42613;47.424;8.560;2023-06-14T02:34:18;96018.81;;;17.96;38.23
56731;BME280;42613;47.424;8.560;2023-06-14T02:36:45;96018.81;;;17.96;37.91
56731;BME280;42613;47.424;8.560;2023-06-14T02:39:10;96023.66;;;17.94;38.34
56731;BME280;42613;47.424;8.560;2023-06-14T02:41:36;96031.56;;;18.05;39.15
56731;BME280;42613;47.424;8.560;2023-06-14T02:44:01;96038.28;;;18.03;39.25
56731;BME280;42613;47.424;8.560;2023-06-14T02:46:26;96019.31;;;17.93;39.34
56731;BME280;42613;47.424;8.560;2023-06-14T02:48:52;96030.81;;;18.10;39.39
56731;BME280;42613;47.424;8.560;2023-06-14T02:51:17;96041.28;;;18.34;38.87
56731;BME280;42613;47.424;8.560;2023-06-14T02:53:42;96041.16;;;18.50;38.04
56731;BME280;42613;47.424;8.560;2023-06-14T02:56:09;96037.56;;;18.40;37.43
56731;BME280;42613;47.424;8.560;2023-06-14T02:58:36;96026.22;;;18.38;36.81
56731;BME280;42613;47.424;8.560;2023-06-14T03:01:01;96025.47;;;18.15;37.53
56731;BME280;42613;47.424;8.560;2023-06-14T03:03:29;96041.25;;;18.01;38.49
56731;BME280;42613;47.424;8.560;2023-06-14T03:05:55;96025.06;;;18.01;37.95
56731;BME280;42613;47.424;8.560;2023-06-14T03:08:20;96043.56;;;18.20;37.53
56731;BME280;42613;47.424;8.560;2023-06-14T03:10:46;96043.84;;;18.18;37.25
56731;BME280;42613;47.424;8.560;2023-06-14T03:13:13;96051.72;;;17.98;37.71
56731;BME280;42613;47.424;8.560;2023-06-14T03:15:38;96046.75;;;17.89;37.84
56731;BME280;42613;47.424;8.560;2023-06-14T03:18:07;96039.31;;;17.53;37.99
56731;BME280;42613;47.424;8.560;2023-06-14T03:20:33;96058.28;;;17.19;40.87
56731;BME280;42613;47.424;8.560;2023-06-14T03:23:02;96062.03;;;17.01;41.95
56731;BME280;42613;47.424;8.560;2023-06-14T03:25:29;96064.81;;;17.06;41.97
56731;BME280;42613;47.424;8.560;2023-06-14T03:27:58;96063.91;;;17.17;42.05
56731;BME280;42613;47.424;8.560;2023-06-14T03:30:23;96060.63;;;17.15;42.30
56731;BME280;42613;47.424;8.560;2023-06-14T03:32:51;96064.25;;;17.04;42.27
56731;BME280;42613;47.424;8.560;2023-06-14T03:35:21;96063.50;;;17.08;42.13
56731;BME280;42613;47.424;8.560;2023-06-14T03:37:47;96076.41;;;16.89;42.50
56731;BME280;42613;47.424;8.560;2023-06-14T03:40:14;96076.31;;;17.01;42.40
56731;BME280;42613;47.424;8.560;2023-06-14T03:42:40;96076.00;;;16.98;42.53
56731;BME280;42613;47.424;8.560;2023-06-14T03:45:06;96067.81;;;17.09;41.86
56731;BME280;42613;47.424;8.560;2023-06-14T03:47:31;96079.91;;;17.29;41.45
56731;BME280;42613;47.424;8.560;2023-06-14T03:49:57;96065.31;;;17.25;41.46
56731;BME280;42613;47.424;8.560;2023-06-14T03:52:22;96062.13;;;17.06;41.38
56731;BME280;42613;47.424;8.560;2023-06-14T03:54:48;96062.78;;;16.96;41.16
56731;BME280;42613;47.424;8.560;2023-06-14T03:57:15;96078.03;;;16.91;41.27
56731;BME280;42613;47.424;8.560;2023-06-14T03:59:40;96092.44;;;17.01;40.73
56731;BME280;42613;47.424;8.560;2023-06-14T04:02:06;96071.59;;;16.92;40.97
56731;BME280;42613;47.424;8.560;2023-06-14T04:04:32;96086.88;;;17.08;40.51
56731;BME280;42613;47.424;8.560;2023-06-14T04:06:58;96103.84;;;17.25;40.45
56731;BME280;42613;47.424;8.560;2023-06-14T04:09:25;96082.16;;;17.15;40.38
56731;BME280;42613;47.424;8.560;2023-06-14T04:11:53;96095.75;;;17.25;40.31
56731;BME280;42613;47.424;8.560;2023-06-14T04:14:20;96096.38;;;17.11;40.53
56731;BME280;42613;47.424;8.560;2023-06-14T04:16:46;96091.88;;;16.99;40.79
56731;BME280;42613;47.424;8.560;2023-06-14T04:19:12;96097.34;;;17.04;40.82
56731;BME280;42613;47.424;8.560;2023-06-14T04:21:37;96084.47;;;17.06;40.65
56731;BME280;42613;47.424;8.560;2023-06-14T04:24:03;96105.47;;;17.26;40.51
56731;BME280;42613;47.424;8.560;2023-06-14T04:26:28;96095.38;;;17.17;40.92
56731;BME280;42613;47.424;8.560;2023-06-14T04:28:55;96114.28;;;17.22;41.00
56731;BME280;42613;47.424;8.560;2023-06-14T04:31:22;96106.59;;;17.30;40.87
56731;BME280;42613;47.424;8.560;2023-06-14T04:33:50;96114.81;;;17.41;40.52
56731;BME280;42613;47.424;8.560;2023-06-14T04:36:15;96115.00;;;17.34;40.46
56731;BME280;42613;47.424;8.560;2023-06-14T04:38:42;96106.03;;;17.28;40.79
56731;BME280;42613;47.424;8.560;2023-06-14T04:41:10;96109.50;;;17.46;40.40
56731;BME280;42613;47.424;8.560;2023-06-14T04:43:36;96126.28;;;17.53;40.39
56731;BME280;42613;47.424;8.560;2023-06-14T04:46:05;96116.28;;;17.48;40.80
56731;BME280;42613;47.424;8.560;2023-06-14T04:48:35;96117.84;;;17.44;40.64
56731;BME280;42613;47.424;8.560;2023-06-14T04:51:00;96137.13;;;17.58;40.86
56731;BME280;42613;47.424;8.560;2023-06-14T04:53:26;96125.97;;;17.49;41.11
56731;BME280;42613;47.424;8.560;2023-06-14T04:55:54;96130.06;;;17.74;40.46
56731;BME280;42613;47.424;8.560;2023-06-14T04:58:20;96134.59;;;17.90;40.61
56731;BME280;42613;47.424;8.560;2023-06-14T05:00:45;96129.66;;;18.04;40.03
56731;BME280;42613;47.424;8.560;2023-06-14T05:03:11;96132.94;;;18.11;39.92
56731;BME280;42613;47.424;8.560;2023-06-14T05:05:41;96144.97;;;18.26;39.76
56731;BME280;42613;47.424;8.560;2023-06-14T05:08:07;96143.72;;;18.34;39.41
56731;BME280;42613;47.424;8.560;2023-06-14T05:10:32;96134.34;;;18.41;39.45
56731;BME280;42613;47.424;8.560;2023-06-14T05:13:01;96142.94;;;18.38;39.57
56731;BME280;42613;47.424;8.560;2023-06-14T05:15:26;96133.13;;;18.27;39.33
56731;BME280;42613;47.424;8.560;2023-06-14T05:17:53;96113.91;;;17.96;39.72
56731;BME280;42613;47.424;8.560;2023-06-14T05:20:21;96131.59;;;18.09;39.36
56731;BME280;42613;47.424;8.560;2023-06-14T05:22:48;96131.59;;;18.09;39.44
56731;BME280;42613;47.424;8.560;2023-06-14T05:25:15;96139.25;;;18.22;39.44
56731;BME280;42613;47.424;8.560;2023-06-14T05:27:40;96147.53;;;18.38;39.19
56731;BME280;42613;47.424;8.560;2023-06-14T05:30:07;96142.91;;;18.33;38.91
56731;BME280;42613;47.424;8.560;2023-06-14T05:32:33;96153.53;;;18.45;39.21
56731;BME280;42613;47.424;8.560;2023-06-14T05:34:59;96147.47;;;18.33;38.88
56731;BME280;42613;47.424;8.560;2023-06-14T05:37:24;96153.19;;;18.36;38.69
56731;BME280;42613;47.424;8.560;2023-06-14T05:39:50;96158.56;;;18.36;38.57
56731;BME280;42613;47.424;8.560;2023-06-14T05:42:15;96150.16;;;18.33;38.01
56731;BME280;42613;47.424;8.560;2023-06-14T05:44:40;96146.63;;;18.27;38.28
56731;BME280;42613;47.424;8.560;2023-06-14T05:47:06;96165.41;;;18.44;38.16
56731;BME280;42613;47.424;8.560;2023-06-14T05:49:31;96165.44;;;18.49;38.02
56731;BME280;42613;47.424;8.560;2023-06-14T05:51:56;96157.16;;;18.56;38.11
56731;BME280;42613;47.424;8.560;2023-06-14T05:54:22;96157.56;;;18.69;38.09
56731;BME280;42613;47.424;8.560;2023-06-14T05:56:47;96167.50;;;18.91;38.03
56731;BME280;42613;47.424;8.560;2023-06-14T05:59:13;96165.94;;;19.00;38.08
56731;BME280;42613;47.424;8.560;2023-06-14T06:01:38;96137.47;;;18.82;37.74
56731;BME280;42613;47.424;8.560;2023-06-14T06:04:05;96154.78;;;18.86;37.41
56731;BME280;42613;47.424;8.560;2023-06-14T06:06:31;96151.88;;;18.98;36.98
56731;BME280;42613;47.424;8.560;2023-06-14T06:08:57;96172.53;;;19.15;37.34
56731;BME280;42613;47.424;8.560;2023-06-14T06:11:23;96163.31;;;19.10;37.08
56731;BME280;42613;47.424;8.560;2023-06-14T06:13:48;96163.31;;;19.10;36.92
56731;BME280;42613;47.424;8.560;2023-06-14T06:16:14;96171.22;;;19.17;36.99
56731;BME280;42613;47.424;8.560;2023-06-14T06:18:40;96166.44;;;19.29;36.75
56731;BME280;42613;47.424;8.560;2023-06-14T06:21:06;96157.47;;;19.19;36.92
56731;BME280;42613;47.424;8.560;2023-06-14T06:23:34;96165.63;;;19.29;36.71
56731;BME280;42613;47.424;8.560;2023-06-14T06:26:01;96173.22;;;19.32;36.56
56731;BME280;42613;47.424;8.560;2023-06-14T06:28:26;96182.47;;;19.41;36.86
56731;BME280;42613;47.424;8.560;2023-06-14T06:30:52;96179.25;;;19.44;36.75
56731;BME280;42613;47.424;8.560;2023-06-14T06:33:18;96157.06;;;19.42;37.01
56731;BME280;42613;47.424;8.560;2023-06-14T06:35:44;96178.78;;;19.58;36.50
56731;BME280;42613;47.424;8.560;2023-06-14T06:38:09;96163.09;;;19.49;36.48
56731;BME280;42613;47.424;8.560;2023-06-14T06:40:35;96179.97;;;19.72;36.45
56731;BME280;42613;47.424;8.560;2023-06-14T06:43:02;96176.72;;;19.70;36.46
56731;BME280;42613;47.424;8.560;2023-06-14T06:45:28;96172.44;;;19.74;36.34
56731;BME280;42613;47.424;8.560;2023-06-14T06:47:53;96193.00;;;19.85;36.53
56731;BME280;42613;47.424;8.560;2023-06-14T06:50:19;96190.34;;;19.90;36.22
56731;BME280;42613;47.424;8.560;2023-06-14T06:52:53;96175.44;;;19.78;36.77
56731;BME280;42613;47.424;8.560;2023-06-14T06:55:18;96188.22;;;19.98;36.45
56731;BME280;42613;47.424;8.560;2023-06-14T06:57:44;96193.13;;;20.06;36.16
56731;BME280;42613;47.424;8.560;2023-06-14T07:00:10;96180.09;;;19.98;35.74
56731;BME280;42613;47.424;8.560;2023-06-14T07:02:36;96193.72;;;20.13;36.25
56731;BME280;42613;47.424;8.560;2023-06-14T07:05:01;96190.47;;;20.16;35.90
56731;BME280;42613;47.424;8.560;2023-06-14T07:07:27;96182.66;;;20.20;35.86
56731;BME280;42613;47.424;8.560;2023-06-14T07:09:52;96179.09;;;20.14;36.06
56731;BME280;42613;47.424;8.560;2023-06-14T07:12:17;96194.56;;;20.24;35.71
56731;BME280;42613;47.424;8.560;2023-06-14T07:14:47;96192.69;;;20.29;35.63
56731;BME280;42613;47.424;8.560;2023-06-14T07:17:13;96203.53;;;20.40;36.01
56731;BME280;42613;47.424;8.560;2023-06-14T07:19:38;96190.81;;;20.40;35.93
56731;BME280;42613;47.424;8.560;2023-06-14T07:22:03;96195.44;;;20.45;35.39
56731;BME280;42613;47.424;8.560;2023-06-14T07:24:29;96192.47;;;20.41;35.54
56731;BME280;42613;47.424;8.560;2023-06-14T07:26:54;96202.47;;;20.51;35.33
56731;BME280;42613;47.424;8.560;2023-06-14T07:29:21;96204.13;;;20.57;35.36
56731;BME280;42613;47.424;8.560;2023-06-14T07:31:47;96186.78;;;20.53;35.46
56731;BME280;42613;47.424;8.560;2023-06-14T07:34:13;96199.03;;;20.61;35.32
56731;BME280;42613;47.424;8.560;2023-06-14T07:36:38;96209.59;;;20.67;35.71
56731;BME280;42613;47.424;8.560;2023-06-14T07:39:04;96202.84;;;20.70;35.30
56731;BME280;42613;47.424;8.560;2023-06-14T07:41:30;96201.78;;;20.71;35.46
56731;BME280;42613;47.424;8.560;2023-06-14T07:43:56;96203.66;;;20.70;35.04
56731;BME280;42613;47.424;8.560;2023-06-14T07:46:21;96202.56;;;20.71;34.76
56731;BME280;42613;47.424;8.560;2023-06-14T07:48:47;96209.63;;;20.78;34.68
56731;BME280;42613;47.424;8.560;2023-06-14T07:51:13;96205.00;;;20.78;34.64
56731;BME280;42613;47.424;8.560;2023-06-14T07:53:38;96205.00;;;20.78;34.57
56731;BME280;42613;47.424;8.560;2023-06-14T07:56:07;96195.81;;;20.74;34.71
56731;BME280;42613;47.424;8.560;2023-06-14T07:58:32;96198.53;;;20.84;35.08
56731;BME280;42613;47.424;8.560;2023-06-14T08:00:58;96199.38;;;20.90;34.96
56731;BME280;42613;47.424;8.560;2023-06-14T08:03:25;96199.38;;;20.90;34.40
56731;BME280;42613;47.424;8.560;2023-06-14T08:05:50;96202.34;;;20.93;34.34
56731;BME280;42613;47.424;8.560;2023-06-14T08:08:16;96199.91;;;20.92;34.58
56731;BME280;42613;47.424;8.560;2023-06-14T08:10:41;96197.75;;;20.99;34.15
56731;BME280;42613;47.424;8.560;2023-06-14T08:13:06;96201.00;;;21.01;34.62
56731;BME280;42613;47.424;8.560;2023-06-14T08:15:32;96195.06;;;21.04;34.00
56731;BME280;42613;47.424;8.560;2023-06-14T08:17:58;96191.00;;;21.07;34.11
56731;BME280;42613;47.424;8.560;2023-06-14T08:20:25;96192.59;;;21.03;33.89
56731;BME280;42613;47.424;8.560;2023-06-14T08:22:50;96203.72;;;21.11;34.25
56731;BME280;42613;47.424;8.560;2023-06-14T08:25:20;96195.03;;;21.09;34.59
56731;BME280;42613;47.424;8.560;2023-06-14T08:27:45;96202.66;;;21.12;34.66
56731;BME280;42613;47.424;8.560;2023-06-14T08:30:11;96197.22;;;21.18;34.37
56731;BME280;42613;47.424;8.560;2023-06-14T08:32:37;96212.91;;;21.21;34.19
56731;BME280;42613;47.424;8.560;2023-06-14T08:35:05;96204.25;;;21.19;32.65
56731;BME280;42613;47.424;8.560;2023-06-14T08:37:32;96207.25;;;21.27;33.17
56731;BME280;42613;47.424;8.560;2023-06-14T08:39:58;96193.94;;;21.21;33.09
56731;BME280;42613;47.424;8.560;2023-06-14T08:42:24;96208.59;;;21.30;33.67
56731;BME280;42613;47.424;8.560;2023-06-14T08:44:49;96202.38;;;21.29;32.37
56731;BME280;42613;47.424;8.560;2023-06-14T08:47:15;96208.59;;;21.35;32.23
56731;BME280;42613;47.424;8.560;2023-06-14T08:49:47;96207.50;;;21.31;32.96
56731;BME280;42613;47.424;8.560;2023-06-14T08:52:14;96208.31;;;21.37;33.09
56731;BME280;42613;47.424;8.560;2023-06-14T08:54:43;96206.69;;;21.35;33.22
56731;BME280;42613;47.424;8.560;2023-06-14T08:57:12;96207.75;;;21.40;31.98
56731;BME280;42613;47.424;8.560;2023-06-14T08:59:45;96206.69;;;21.41;31.87
56731;BME280;42613;47.424;8.560;2023-06-14T09:02:12;96207.28;;;21.43;32.59
56731;BME280;42613;47.424;8.560;2023-06-14T09:04:38;96205.63;;;21.37;32.74
56731;BME280;42613;47.424;8.560;2023-06-14T09:07:05;96196.69;;;21.36;32.91
56731;BME280;42613;47.424;8.560;2023-06-14T09:09:37;96199.63;;;21.40;32.70
56731;BME280;42613;47.424;8.560;2023-06-14T09:12:03;96199.38;;;21.41;33.02
56731;BME280;42613;47.424;8.560;2023-06-14T09:14:33;96198.59;;;21.46;33.05
56731;BME280;42613;47.424;8.560;2023-06-14T09:17:04;96193.97;;;21.41;33.24
56731;BME280;42613;47.424;8.560;2023-06-14T09:19:30;96212.38;;;21.54;33.20
56731;BME280;42613;47.424;8.560;2023-06-14T09:21:55;96207.50;;;21.57;33.50
56731;BME280;42613;47.424;8.560;2023-06-14T09:24:24;96187.75;;;21.46;32.94
56731;BME280;42613;47.424;8.560;2023-06-14T09:26:50;96200.47;;;21.61;33.09
56731;BME280;42613;47.424;8.560;2023-06-14T09:29:20;96180.44;;;21.51;32.03
56731;BME280;42613;47.424;8.560;2023-06-14T09:31:48;96171.50;;;21.46;32.79
56731;BME280;42613;47.424;8.560;2023-06-14T09:34:18;96183.13;;;21.57;33.02
56731;BME280;42613;47.424;8.560;2023-06-14T09:36:48;96203.44;;;21.74;33.32
56731;BME280;42613;47.424;8.560;2023-06-14T09:39:17;96178.25;;;21.59;33.10
56731;BME280;42613;47.424;8.560;2023-06-14T09:41:45;96190.16;;;21.68;33.19
56731;BME280;42613;47.424;8.560;2023-06-14T09:44:10;96205.59;;;21.78;33.07
56731;BME280;42613;47.424;8.560;2023-06-14T09:46:37;96197.72;;;21.81;33.22
56731;BME280;42613;47.424;8.560;2023-06-14T09:49:06;96190.97;;;21.79;33.25
56731;BME280;42613;47.424;8.560;2023-06-14T09:51:31;96185.53;;;21.73;33.47
56731;BME280;42613;47.424;8.560;2023-06-14T09:54:02;96192.88;;;21.78;33.42
56731;BME280;42613;47.424;8.560;2023-06-14T09:56:44;96209.63;;;21.90;33.29
56731;BME280;42613;47.424;8.560;2023-06-14T09:59:13;96204.72;;;21.92;33.22
56731;BME280;42613;47.424;8.560;2023-06-14T10:01:42;96191.19;;;21.92;31.57
56731;BME280;42613;47.424;8.560;2023-06-14T10:04:09;96199.28;;;22.03;32.67
56731;BME280;42613;47.424;8.560;2023-06-14T10:06:43;96199.81;;;22.05;32.85
56731;BME280;42613;47.424;8.560;2023-06-14T10:09:11;96201.47;;;22.06;32.98
56731;BME280;42613;47.424;8.560;2023-06-14T10:11:38;96201.69;;;22.09;32.74
56731;BME280;42613;47.424;8.560;2023-06-14T10:14:09;96196.56;;;22.08;32.91
56731;BME280;42613;47.424;8.560;2023-06-14T10:19:20;96201.13;;;22.17;33.04
56731;BME280;42613;47.424;8.560;2023-06-14T10:24:33;96189.22;;;22.24;33.05
56731;BME280;42613;47.424;8.560;2023-06-14T10:27:00;96192.72;;;22.29;32.51
56731;BME280;42613;47.424;8.560;2023-06-14T10:29:27;96175.38;;;22.25;32.58
56731;BME280;42613;47.424;8.560;2023-06-14T10:31:57;96187.00;;;22.36;32.54
56731;BME280;42613;47.424;8.560;2023-06-14T10:34:24;96184.28;;;22.36;32.32
56731;BME280;42613;47.424;8.560;2023-06-14T10:37:06;96190.50;;;22.36;32.73
56731;BME280;42613;47.424;8.560;2023-06-14T10:39:38;96187.22;;;22.45;32.77
56731;BME280;42613;47.424;8.560;2023-06-14T10:42:05;96185.56;;;22.49;32.58
56731;BME280;42613;47.424;8.560;2023-06-14T10:44:45;96183.91;;;22.53;32.43
56731;BME280;42613;47.424;8.560;2023-06-14T10:47:30;96162.00;;;22.44;32.38
56731;BME280;42613;47.424;8.560;2023-06-14T10:50:06;96185.25;;;22.61;32.88
56731;BME280;42613;47.424;8.560;2023-06-14T10:52:40;96176.56;;;22.59;32.84
56731;BME280;42613;47.424;8.560;2023-06-14T10:57:50;96185.16;;;22.71;31.93
56731;BME280;42613;47.424;8.560;2023-06-14T11:00:37;96180.25;;;22.73;32.58
56731;BME280;42613;47.424;8.560;2023-06-14T11:03:31;96188.09;;;22.85;32.21
56731;BME280;42613;47.424;8.560;2023-06-14T11:06:14;96169.66;;;22.76;31.98
56731;BME280;42613;47.424;8.560;2023-06-14T11:09:19;96156.34;;;22.80;32.51
56731;BME280;42613;47.424;8.560;2023-06-14T11:11:37;96173.66;;;22.89;32.08
56731;BME280;42613;47.424;8.560;2023-06-14T11:14:04;96169.31;;;22.88;32.04
56731;BME280;42613;47.424;8.560;2023-06-14T11:16:30;96143.31;;;22.82;32.51
56731;BME280;42613;47.424;8.560;2023-06-14T11:19:02;96173.03;;;23.03;32.25
56731;BME280;42613;47.424;8.560;2023-06-14T11:21:33;96168.44;;;23.03;32.45
56731;BME280;42613;47.424;8.560;2023-06-14T11:23:59;96181.91;;;23.13;32.21
56731;BME280;42613;47.424;8.560;2023-06-14T11:26:28;96179.19;;;23.19;32.31
56731;BME280;42613;47.424;8.560;2023-06-14T11:28:58;96184.84;;;23.22;32.31
56731;BME280;42613;47.424;8.560;2023-06-14T11:31:24;96162.06;;;23.18;32.48
56731;BME280;42613;47.424;8.560;2023-06-14T11:33:50;96175.28;;;23.30;32.38
56731;BME280;42613;47.424;8.560;2023-06-14T11:36:16;96151.44;;;23.22;31.97
56731;BME280;42613;47.424;8.560;2023-06-14T11:38:42;96154.63;;;23.29;32.24
56731;BME280;42613;47.424;8.560;2023-06-14T11:41:07;96158.34;;;23.38;31.93
56731;BME280;42613;47.424;8.560;2023-06-14T11:43:32;96158.34;;;23.38;32.61
56731;BME280;42613;47.424;8.560;2023-06-14T11:46:00;96154.22;;;23.46;32.61
56731;BME280;42613;47.424;8.560;2023-06-14T11:48:38;96154.41;;;23.54;32.24
56731;BME280;42613;47.424;8.560;2023-06-14T11:51:04;96163.84;;;23.62;32.54
56731;BME280;42613;47.424;8.560;2023-06-14T11:53:30;96161.34;;;23.66;32.68
56731;BME280;42613;47.424;8.560;2023-06-14T11:55:56;96156.94;;;23.70;32.40
56731;BME280;42613;47.424;8.560;2023-06-14T11:58:22;96143.88;;;23.72;32.34
56731;BME280;42613;47.424;8.560;2023-06-14T12:00:50;96133.06;;;23.67;32.07
56731;BME280;42613;47.424;8.560;2023-06-14T12:03:15;96139.25;;;23.72;32.50
56731;BME280;42613;47.424;8.560;2023-06-14T12:05:41;96137.25;;;23.83;32.44
56731;BME280;42613;47.424;8.560;2023-06-14T12:08:06;96145.31;;;23.93;32.22
56731;BME280;42613;47.424;8.560;2023-06-14T12:10:42;96149.59;;;24.00;32.36
56731;BME280;42613;47.424;8.560;2023-06-14T12:13:09;96148.19;;;24.02;32.17
56731;BME280;42613;47.424;8.560;2023-06-14T12:15:35;96139.47;;;24.05;32.49
56731;BME280;42613;47.424;8.560;2023-06-14T12:18:00;96143.75;;;24.11;32.13
56731;BME280;42613;47.424;8.560;2023-06-14T12:20:29;96135.34;;;24.08;31.70
56731;BME280;42613;47.424;8.560;2023-06-14T12:22:58;96136.31;;;24.17;32.00
56731;BME280;42613;47.424;8.560;2023-06-14T12:25:28;96131.69;;;24.17;32.33
56731;BME280;42613;47.424;8.560;2023-06-14T12:27:57;96143.25;;;24.28;32.37
56731;BME280;42613;47.424;8.560;2023-06-14T12:30:22;96148.84;;;24.37;31.16
56731;BME280;42613;47.424;8.560;2023-06-14T12:32:48;96143.69;;;24.35;31.61
56731;BME280;42613;47.424;8.560;2023-06-14T12:35:14;96133.34;;;24.37;31.47
56731;BME280;42613;47.424;8.560;2023-06-14T12:37:40;96134.81;;;24.49;31.41
56731;BME280;42613;47.424;8.560;2023-06-14T12:40:06;96140.22;;;24.54;31.45
56731;BME280;42613;47.424;8.560;2023-06-14T12:42:32;96144.53;;;24.55;31.63
56731;BME280;42613;47.424;8.560;2023-06-14T12:44:58;96137.94;;;24.61;31.28
56731;BME280;42613;47.424;8.560;2023-06-14T12:47:24;96150.50;;;24.76;31.08
56731;BME280;42613;47.424;8.560;2023-06-14T12:49:49;96148.09;;;24.74;30.30
56731;BME280;42613;47.424;8.560;2023-06-14T12:52:15;96157.50;;;24.82;30.19
56731;BME280;42613;47.424;8.560;2023-06-14T12:54:43;96162.06;;;24.87;30.31
56731;BME280;42613;47.424;8.560;2023-06-14T12:57:09;96139.84;;;24.79;30.64
56731;BME280;42613;47.424;8.560;2023-06-14T12:59:35;96150.31;;;24.91;30.36
56731;BME280;42613;47.424;8.560;2023-06-14T13:02:19;96152.03;;;25.01;30.59
56731;BME280;42613;47.424;8.560;2023-06-14T13:04:49;96162.03;;;25.06;30.29
56731;BME280;42613;47.424;8.560;2023-06-14T13:07:15;96141.66;;;25.03;30.68
56731;BME280;42613;47.424;8.560;2023-06-14T13:09:41;96137.91;;;24.99;30.90